Time;durP1;ratioP1;P1;durP2;ratioP2;P2;SDS_P1;SDS_P2;PMS_P1;PMS_P2;Temp;Humidity;BMP_temperature;BMP_pressure;BME280_temperature;BME280_humidity;BME280_pressure;Samples;Min_cycle;Max_cycle;Signal;HPM_P1;HPM_P2
2022/04/25 00:02:12;;;;;;;9.35;8.02;;;;;;;9.86;74.34;99760.50;5034181;28;20091;-68
2022/04/25 00:05:15;;;;;;;9.15;8.25;;;;;;;9.86;74.12;99761.38;5033946;28;20040;-68
2022/04/25 00:08:18;;;;;;;;;;;;;;;9.78;74.50;99758.38;5034333;28;20045;-68
2022/04/25 00:11:22;;;;;;;9.05;8.10;;;;;;;9.78;74.62;99763.59;5033708;28;19919;-68
2022/04/25 00:14:25;;;;;;;8.88;7.97;;;;;;;9.87;73.52;99764.81;5039733;28;20094;-68
2022/04/25 00:17:28;;;;;;;9.05;8.23;;;;;;;9.58;74.06;99771.81;5053617;28;20094;-68
2022/04/25 00:20:32;;;;;;;8.82;7.97;;;;;;;9.80;73.27;99774.81;5053225;28;20052;-68
2022/04/25 00:23:35;;;;;;;10.90;9.57;;;;;;;9.87;73.01;99770.88;5053385;28;20464;-69
2022/04/25 00:26:38;;;;;;;;;;;;;;;9.69;73.01;99772.00;5053799;28;20128;-68
2022/04/25 00:29:42;;;;;;;11.32;8.70;;;;;;;9.76;73.34;99771.53;5053570;28;19959;-68
2022/04/25 00:32:45;;;;;;;;;;;;;;;9.83;72.55;99769.41;5054090;28;20056;-68
2022/04/25 00:35:48;;;;;;;9.55;8.52;;;;;;;9.70;72.71;99768.44;5053286;28;20391;-68
2022/04/25 00:38:52;;;;;;;10.25;8.90;;;;;;;9.48;73.07;99772.38;5065475;28;20056;-68
2022/04/25 00:41:57;;;;;;;10.32;9.13;;;;;;;9.44;73.74;99773.44;5068728;28;20079;-67
2022/04/25 00:45:00;;;;;;;9.95;8.95;;;;;;;9.30;74.35;99779.50;5055215;28;20094;-68
2022/04/25 00:48:04;;;;;;;11.57;8.32;;;;;;;9.33;74.10;99768.06;5053134;28;20514;-68
2022/04/25 00:51:08;;;;;;;9.57;8.68;;;;;;;9.29;74.23;99771.78;5052880;28;20043;-68
2022/04/25 00:54:11;;;;;;;12.27;8.73;;;;;;;9.31;74.66;99767.28;5052957;28;20083;-68
2022/04/25 00:57:15;;;;;;;9.32;8.43;;;;;;;9.27;74.71;99773.63;5053018;28;20102;-68
2022/04/25 01:00:20;;;;;;;11.05;9.48;;;;;;;9.29;74.71;99761.34;5052863;28;20475;-68
2022/04/25 01:03:23;;;;;;;11.60;9.23;;;;;;;9.27;75.08;99764.03;5052882;28;20040;-68
2022/04/25 01:06:26;;;;;;;14.02;8.52;;;;;;;9.28;75.04;99764.88;5052950;28;20459;-68
2022/04/25 01:09:29;;;;;;;9.55;8.65;;;;;;;9.40;74.62;99758.91;5052542;28;20124;-68
2022/04/25 01:12:33;;;;;;;10.98;9.10;;;;;;;9.53;74.49;99759.84;5052667;28;20048;-68
2022/04/25 01:15:36;;;;;;;9.73;8.73;;;;;;;9.64;73.69;99761.00;5052575;28;20124;-68
2022/04/25 01:18:39;;;;;;;;;;;;;;;9.69;73.48;99758.94;5053129;28;20052;-68
2022/04/25 01:21:44;;;;;;;11.25;10.05;;;;;;;9.45;74.51;99754.28;5032791;28;19920;-68
2022/04/25 01:28:09;;;;;;;11.68;9.80;;;;;;;9.29;75.38;99756.13;5032789;28;20052;-68
2022/04/25 01:31:13;;;;;;;10.23;8.93;;;;;;;9.42;75.18;99764.06;5032484;28;20044;-68
2022/04/25 01:34:16;;;;;;;12.93;8.75;;;;;;;9.32;74.91;99762.00;5032268;28;20048;-68
2022/04/25 01:37:20;;;;;;;;;;;;;;;9.26;75.38;99758.91;5032710;28;20083;-68
2022/04/25 01:40:25;;;;;;;10.98;8.88;;;;;;;9.21;75.22;99768.78;5032310;28;19966;-68
2022/04/25 01:43:29;;;;;;;9.80;8.80;;;;;;;9.28;75.06;99780.50;5037728;28;20093;-68
2022/04/25 01:46:33;;;;;;;10.35;9.35;;;;;;;9.42;74.57;99772.72;5052158;28;20680;-68
2022/04/25 01:49:37;;;;;;;9.95;8.43;;;;;;;9.41;74.21;99775.41;5039894;28;20126;-68
2022/04/25 01:52:40;;;;;;;9.48;8.10;;;;;;;9.48;74.06;99785.41;5052391;28;20101;-68
2022/04/25 01:55:43;;;;;;;9.93;8.93;;;;;;;9.17;74.92;99811.63;5052061;28;20039;-68
2022/04/25 01:58:47;;;;;;;10.82;9.70;;;;;;;8.96;76.71;99837.13;5056366;28;20103;-68
2022/04/25 02:01:51;;;;;;;;;;;;;;;8.88;77.58;99840.19;5057040;28;20055;-68
2022/04/25 02:04:55;;;;;;;10.85;9.57;;;;;;;8.95;77.94;99840.69;5056041;28;19966;-68
2022/04/25 02:07:58;;;;;;;10.75;9.73;;;;;;;9.32;76.59;99834.22;5056086;28;20064;-68
2022/04/25 02:11:20;;;;;;;12.43;10.85;;;;;;;9.43;75.77;99838.78;5056271;28;20103;-68
2022/04/25 02:14:23;;;;;;;12.48;9.88;;;;;;;9.42;76.28;99830.13;5048588;28;20048;-68
2022/04/25 02:17:27;;;;;;;;;;;;;;;9.36;76.53;99833.09;5056312;28;20113;-68
2022/04/25 02:20:30;;;;;;;11.05;9.95;;;;;;;9.34;76.41;99839.31;5056404;28;19967;-67
2022/04/25 02:23:34;;;;;;;12.65;9.40;;;;;;;9.30;77.33;99849.09;5055671;28;20079;-69
2022/04/25 02:26:37;;;;;;;15.90;10.80;;;;;;;9.15;78.90;99847.38;5055878;28;20507;-68
2022/04/25 02:29:40;;;;;;;;;;;;;;;9.43;78.80;99847.47;5056148;28;20048;-68
2022/04/25 02:32:43;;;;;;;11.27;10.05;;;;;;;9.35;78.84;99849.69;5055851;28;20382;-67
2022/04/25 02:35:48;;;;;;;11.18;10.00;;;;;;;9.31;79.60;99845.56;5055448;28;20039;-68
2022/04/25 02:38:52;;;;;;;11.80;10.50;;;;;;;9.15;80.68;99837.78;5055559;28;20642;-68
2022/04/25 02:41:55;;;;;;;12.52;11.23;;;;;;;9.14;80.58;99835.25;5055444;28;20094;-68
2022/04/25 02:44:58;;;;;;;14.77;12.13;;;;;;;9.13;80.49;99824.00;5055551;28;20048;-68
2022/04/25 02:48:02;;;;;;;12.98;11.38;;;;;;;9.06;81.39;99818.28;5055680;28;20064;-68
2022/04/25 02:51:07;;;;;;;;;;;;;;;9.07;81.52;99817.34;5055649;28;20206;-68
2022/04/25 02:54:10;;;;;;;14.20;12.50;;;;;;;9.14;81.47;99830.06;5055306;28;19987;-68
2022/04/25 02:57:13;;;;;;;14.35;12.85;;;;;;;9.07;81.45;99825.19;5055150;28;20043;-68
2022/04/25 03:00:16;;;;;;;;;;;;;;;8.99;82.45;99806.50;5055538;28;20170;-68
2022/04/25 03:03:20;;;;;;;13.70;12.27;;;;;;;8.90;83.04;99790.56;5055281;28;20379;-68
2022/04/25 03:06:23;;;;;;;15.07;13.68;;;;;;;8.74;84.10;99796.66;5055200;28;20394;-68
2022/04/25 03:09:27;;;;;;;;;;;;;;;8.83;84.46;99795.28;5054609;28;20040;-68
2022/04/25 03:12:32;;;;;;;16.00;14.30;;;;;;;9.05;83.34;99805.31;5054659;28;20330;-68
2022/04/25 03:15:39;;;;;;;14.50;13.10;;;;;;;9.32;81.48;99808.13;5054611;28;20507;-68
2022/04/25 03:18:43;;;;;;;17.75;13.75;;;;;;;9.38;81.54;99815.59;5055037;28;20404;-68
2022/04/25 03:21:46;;;;;;;15.82;13.80;;;;;;;9.47;81.25;99816.81;5054701;28;20511;-68
2022/04/25 03:24:50;;;;;;;19.05;14.35;;;;;;;8.86;84.06;99821.19;5054371;28;20051;-68
2022/04/25 03:27:55;;;;;;;16.83;15.23;;;;;;;8.72;85.27;99828.94;5054567;28;20039;-68
2022/04/25 03:30:59;;;;;;;16.90;13.20;;;;;;;8.89;84.72;99828.00;5054442;28;20443;-68
2022/04/25 03:34:03;;;;;;;14.98;13.57;;;;;;;9.14;83.32;99822.22;5054933;28;20044;-68
2022/04/25 03:37:06;;;;;;;16.88;13.65;;;;;;;9.22;83.53;99830.44;5054455;28;20044;-68
2022/04/25 03:40:13;;;;;;;13.57;11.63;;;;;;;9.29;83.70;99829.19;5054427;28;20114;-68
2022/04/25 03:43:17;;;;;;;15.10;13.48;;;;;;;8.98;84.52;99838.75;5053975;28;20138;-68
2022/04/25 03:46:21;;;;;;;13.88;12.52;;;;;;;8.99;84.77;99843.03;5054455;28;20048;-68
2022/04/25 03:49:24;;;;;;;;;;;;;;;9.09;84.29;99848.56;5054594;28;20051;-68
2022/04/25 03:52:28;;;;;;;12.85;11.48;;;;;;;9.34;83.17;99842.78;5054281;28;19919;-68
2022/04/25 03:58:54;;;;;;;16.70;13.10;;;;;;;9.20;83.77;99867.06;5054140;28;20055;-68
2022/04/25 04:01:57;;;;;;;15.43;13.95;;;;;;;8.92;84.67;99867.75;5053357;28;20114;-68
2022/04/25 04:05:03;;;;;;;14.82;12.40;;;;;;;9.20;83.38;99867.06;5054029;28;20072;-68
2022/04/25 04:08:06;;;;;;;13.02;11.70;;;;;;;9.08;84.58;99876.41;5054167;28;20051;-68
2022/04/25 04:11:10;;;;;;;;;;;;;;;9.11;84.86;99872.78;5054243;28;20094;-68
2022/04/25 04:14:14;;;;;;;15.40;13.35;;;;;;;9.19;84.40;99874.94;5053187;28;19966;-68
2022/04/25 04:17:25;;;;;;;14.57;12.65;;;;;;;9.40;83.44;99872.91;5052097;28;20043;-67
2022/04/25 04:20:32;;;;;;;14.95;13.15;;;;;;;9.40;82.99;99868.50;5062390;28;20390;-67
2022/04/25 04:23:36;;;;;;;13.85;12.48;;;;;;;9.33;83.23;99882.84;5030536;28;20072;-68
2022/04/25 04:26:43;;;;;;;13.65;12.27;;;;;;;9.39;82.82;99882.50;5030994;28;20041;-68
2022/04/25 04:29:50;;;;;;;13.82;12.25;;;;;;;9.52;82.20;99888.69;5040800;28;20041;-67
2022/04/25 04:32:59;;;;;;;15.45;13.88;;;;;;;9.42;83.11;99886.69;5060637;28;20535;-68
2022/04/25 04:36:34;;;;;;;15.50;14.00;;;;;;;9.28;83.60;99895.31;5077737;28;20039;-67
2022/04/25 04:39:47;;;;;;;12.85;11.65;;;;;;;9.22;83.81;99901.72;5063942;28;20071;-68
2022/04/25 04:42:52;;;;;;;13.85;12.13;;;;;;;9.36;83.06;99898.31;5046545;28;20410;-69
2022/04/25 04:45:57;;;;;;;15.18;13.73;;;;;;;9.38;83.26;99899.09;5018009;28;20044;-68
2022/04/25 04:49:26;;;;;;;13.88;12.57;;;;;;;9.29;82.81;99902.22;5034525;28;20052;-67
2022/04/25 04:52:33;;;;;;;16.47;13.23;;;;;;;9.18;83.59;99907.19;5031547;28;20103;-68
2022/04/25 04:55:38;;;;;;;15.52;14.10;;;;;;;8.79;85.08;99909.31;5033900;28;20403;-69
2022/04/25 04:58:45;;;;;;;14.48;12.80;;;;;;;8.96;83.99;99916.19;5034450;28;20063;-68
2022/04/25 05:01:52;;;;;;;15.95;13.32;;;;;;;8.93;84.43;99920.75;5047282;28;20511;-68
2022/04/25 05:04:57;;;;;;;15.82;13.05;;;;;;;9.08;83.81;99915.53;5047377;28;20083;-68
2022/04/25 05:08:02;;;;;;;;;;;;;;;9.21;83.47;99920.06;5049159;28;20551;-68
2022/04/25 05:11:09;;;;;;;14.80;12.35;;;;;;;9.27;83.17;99911.88;5029263;28;19920;-68
2022/04/25 05:14:14;;;;;;;15.32;13.93;;;;;;;9.13;83.32;99911.84;5017836;28;20076;-68
2022/04/25 05:17:17;;;;;;;14.98;13.45;;;;;;;9.03;83.68;99917.56;5029556;28;20044;-68
2022/04/25 05:20:24;;;;;;;15.10;12.77;;;;;;;9.21;83.06;99914.84;5029790;28;20107;-68
2022/04/25 05:23:28;;;;;;;14.52;13.23;;;;;;;8.93;84.39;99916.38;5028807;28;20258;-68
2022/04/25 05:26:31;;;;;;;12.80;11.60;;;;;;;9.04;83.76;99919.25;5032288;28;20111;-68
2022/04/25 05:29:35;;;;;;;14.00;12.57;;;;;;;9.15;83.79;99915.19;5032103;28;20199;-67
2022/04/25 05:32:57;;;;;;;13.68;12.35;;;;;;;9.11;83.36;99918.91;5031773;28;20040;-68
2022/04/25 05:36:00;;;;;;;16.75;14.52;;;;;;;9.04;83.64;99924.44;5042527;28;20589;-67
2022/04/25 05:39:32;;;;;;;15.57;14.00;;;;;;;9.02;83.98;99926.28;5040304;28;20127;-67
2022/04/25 05:42:36;;;;;;;13.23;11.40;;;;;;;9.26;83.10;99933.69;5035165;28;20132;-68
2022/04/25 05:45:39;;;;;;;;;;;;;;;9.30;82.25;99932.59;5029310;28;20048;-68
2022/04/25 05:52:05;;;;;;;14.50;13.15;;;;;;;9.25;83.25;99939.81;5030548;28;20099;-68
2022/04/25 05:55:09;;;;;;;14.65;13.25;;;;;;;9.39;83.03;99939.91;5032003;28;20052;-68
2022/04/25 05:58:12;;;;;;;15.05;13.65;;;;;;;9.47;82.66;99937.69;5030148;28;20547;-68
2022/04/25 06:01:16;;;;;;;15.05;13.55;;;;;;;9.59;82.52;99945.75;5047127;28;20056;-68
2022/04/25 06:04:21;;;;;;;;;;;;;;;9.65;82.45;99948.00;5052715;28;20095;-68
2022/04/25 06:07:24;;;;;;;13.93;12.65;;;;;;;9.78;81.75;99952.41;5052271;28;19919;-68
2022/04/25 06:10:27;;;;;;;11.55;10.43;;;;;;;10.05;80.05;99953.50;5051748;28;20055;-68
2022/04/25 06:13:30;;;;;;;11.38;10.18;;;;;;;9.92;79.42;99956.00;5051834;28;20109;-68
2022/04/25 06:16:33;;;;;;;;;;;;;;;10.02;79.22;99955.38;5052652;28;20036;-68
2022/04/25 06:19:36;;;;;;;13.10;11.77;;;;;;;9.28;82.57;99963.13;5052049;28;19920;-68
2022/04/25 06:22:56;;;;;;;12.43;11.13;;;;;;;9.58;81.66;99964.97;5039528;28;20048;-68
2022/04/25 06:26:00;;;;;;;13.75;12.20;;;;;;;9.88;81.00;99968.38;5012080;28;20045;-68
2022/04/25 06:29:04;;;;;;;13.68;12.43;;;;;;;10.13;79.43;99966.97;5012080;28;20052;-68
2022/04/25 06:32:08;;;;;;;35.45;31.60;;;;;;;9.95;78.74;99974.94;5012167;28;20149;-68
2022/04/25 06:35:11;;;;;;;;;;;;;;;9.94;78.46;99978.47;5012530;28;20544;-68
2022/04/25 06:38:15;;;;;;;;;;;;;;;9.34;80.34;99982.81;5012365;28;20003;-68
2022/04/25 06:41:21;;;;;;;11.65;9.20;;;;;;;9.61;79.91;99993.50;5011898;28;19967;-68
2022/04/25 06:44:24;;;;;;;8.73;7.82;;;;;;;9.34;80.95;99993.25;5014241;28;20564;-68
2022/04/25 06:47:30;;;;;;;8.20;7.35;;;;;;;9.69;80.20;99989.50;5015917;28;20053;-68
2022/04/25 06:50:34;;;;;;;7.90;7.10;;;;;;;9.61;78.80;99990.88;5015013;28;20401;-68
2022/04/25 06:53:38;;;;;;;9.82;8.82;;;;;;;9.53;79.87;99993.91;5015496;28;20068;-68
2022/04/25 06:56:42;;;;;;;9.68;7.70;;;;;;;9.52;79.30;99992.25;5015480;28;20126;-68
2022/04/25 06:59:45;;;;;;;8.88;7.97;;;;;;;9.42;79.55;99991.91;5014982;28;20175;-68
2022/04/25 07:02:48;;;;;;;;;;;;;;;9.27;81.03;99998.81;5015804;28;20057;-68
2022/04/25 07:05:54;;;;;;;5.43;4.78;;;;;;;9.28;79.65;99994.44;5015294;28;20415;-68
2022/04/25 07:08:58;;;;;;;7.15;6.03;;;;;;;9.17;79.85;100000.25;5015190;28;20208;-68
2022/04/25 07:12:01;;;;;;;5.82;5.22;;;;;;;9.31;78.54;100004.69;5015104;28;20096;-68
2022/04/25 07:15:05;;;;;;;7.22;5.72;;;;;;;8.89;80.80;100007.88;5015221;28;20139;-68
2022/04/25 07:18:08;;;;;;;5.25;4.72;;;;;;;8.77;81.77;100006.75;5015233;28;20097;-68
2022/04/25 07:31:21;;;;;;;7.22;4.80;;;;;;;9.42;79.03;100007.56;5054861;28;20056;-68
2022/04/25 07:34:25;;;;;;;5.55;3.97;;;;;;;9.42;77.67;100006.72;5054509;28;20047;-68
2022/04/25 07:37:28;;;;;;;;;;;;;;;9.57;76.76;100005.00;5054757;28;20048;-68
2022/04/25 07:40:31;;;;;;;5.38;4.40;;;;;;;9.74;75.87;100012.75;5054206;28;19920;-68
2022/04/25 07:43:35;;;;;;;5.88;5.28;;;;;;;9.85;75.99;100002.50;5054372;28;20052;-68
2022/04/25 07:46:42;;;;;;;5.25;4.47;;;;;;;9.98;76.67;100010.47;5054460;28;20083;-68
2022/04/25 07:49:45;;;;;;;6.85;5.00;;;;;;;10.06;75.58;100007.44;5054216;28;20083;-68
2022/04/25 07:52:51;;;;;;;6.53;5.38;;;;;;;10.08;75.30;100010.78;5053671;28;20114;-68
2022/04/25 07:55:54;;;;;;;5.15;4.45;;;;;;;9.84;75.68;100011.28;5041375;28;20044;-68
2022/04/25 07:58:58;;;;;;;10.82;4.63;;;;;;;9.94;76.55;100004.59;5053036;28;20515;-68
2022/04/25 08:02:02;;;;;;;5.88;5.28;;;;;;;10.23;75.66;100007.28;5053801;28;20094;-68
2022/04/25 08:05:06;;;;;;;5.25;4.35;;;;;;;10.19;75.69;100003.19;5053833;28;20051;-68
2022/04/25 08:08:09;;;;;;;5.32;3.85;;;;;;;10.19;77.53;100003.19;5053887;28;20040;-68
2022/04/25 08:11:13;;;;;;;5.22;4.70;;;;;;;10.43;78.30;100009.59;5053705;28;20043;-68
2022/04/25 08:21:00;;;;;;;5.88;4.32;;;;;;;10.41;77.00;100008.00;5053396;28;20051;-68
2022/04/25 08:24:04;;;;;;;9.18;4.85;;;;;;;10.12;79.42;100022.75;5053148;28;20095;-68
2022/04/25 08:27:07;;;;;;;6.65;5.55;;;;;;;10.10;79.13;100029.84;5053701;28;20055;-68
2022/04/25 08:30:14;;;;;;;5.32;4.82;;;;;;;10.37;79.61;100033.50;5052956;28;20106;-68
2022/04/25 08:33:19;;;;;;;5.60;5.10;;;;;;;10.66;78.43;100025.69;5053187;28;20098;-68
2022/04/25 08:36:23;;;;;;;6.20;4.90;;;;;;;10.82;76.41;100034.28;5041158;28;20048;-68
2022/04/25 08:39:29;;;;;;;6.93;5.53;;;;;;;10.92;75.89;100039.78;5053486;28;20051;-68
2022/04/25 08:42:32;;;;;;;5.53;4.90;;;;;;;11.08;74.70;100034.44;5053461;28;20122;-68
2022/04/25 08:45:38;;;;;;;5.28;4.78;;;;;;;11.12;74.52;100041.16;5052888;28;20554;-68
2022/04/25 08:48:45;;;;;;;6.68;5.35;;;;;;;11.17;75.21;100044.34;5054972;28;20507;-68
2022/04/25 08:51:50;;;;;;;6.18;5.40;;;;;;;11.14;75.91;100044.53;5039059;28;20047;-68
2022/04/25 08:54:58;;;;;;;5.68;4.80;;;;;;;11.39;75.67;100031.56;5043489;28;20550;-68
2022/04/25 08:58:05;;;;;;;5.70;4.97;;;;;;;11.57;75.30;100036.56;5033413;28;20060;-68
2022/04/25 09:01:10;;;;;;;5.75;5.15;;;;;;;11.40;75.85;100038.47;5040465;28;20606;-68
2022/04/25 09:04:14;;;;;;;7.13;5.30;;;;;;;11.58;73.84;100043.47;5052492;28;20044;-68
2022/04/25 09:07:18;;;;;;;6.90;5.90;;;;;;;11.71;74.82;100049.63;5051635;28;20044;-68
2022/04/25 09:10:22;;;;;;;5.93;4.93;;;;;;;11.91;73.29;100047.53;5052613;28;20499;-68
2022/04/25 09:13:25;;;;;;;6.57;5.97;;;;;;;12.23;74.34;100046.22;5052737;28;20102;-68
2022/04/25 09:16:30;;;;;;;5.22;4.72;;;;;;;12.42;74.06;100053.69;5052437;28;20043;-68
2022/04/25 09:19:34;;;;;;;;;;;;;;;12.39;74.64;100053.06;5040393;28;20075;-69
2022/04/25 09:22:40;;;;;;;7.45;6.00;;;;;;;12.27;73.18;100052.94;5052329;28;19959;-68
2022/04/25 09:25:43;;;;;;;6.85;5.70;;;;;;;12.23;71.86;100054.09;5052091;28;20104;-68
2022/04/25 09:28:53;;;;;;;6.70;6.03;;;;;;;12.29;73.97;100056.31;5051729;28;20494;-68
2022/04/25 09:31:57;;;;;;;7.65;6.47;;;;;;;12.27;73.43;100052.94;5028795;28;20191;-68
2022/04/25 09:35:29;;;;;;;7.82;7.03;;;;;;;11.93;70.64;100059.56;5052055;28;20314;-68
2022/04/25 09:38:36;;;;;;;10.63;8.05;;;;;;;12.08;72.74;100062.97;5052048;28;20126;-68
2022/04/25 09:41:45;;;;;;;8.95;7.00;;;;;;;12.13;68.98;100055.66;5052057;28;20048;-68
2022/04/25 09:44:57;;;;;;;8.73;7.38;;;;;;;12.07;68.86;100050.81;5051921;28;20487;-68
2022/04/25 09:48:01;;;;;;;9.10;7.55;;;;;;;12.12;70.61;100059.19;5051778;28;20150;-68
2022/04/25 09:51:06;;;;;;;10.15;7.18;;;;;;;12.43;70.83;100060.63;5051767;28;20401;-68
2022/04/25 09:54:11;;;;;;;8.35;7.30;;;;;;;12.53;69.81;100068.69;5051751;28;20565;-68
2022/04/25 09:57:32;;;;;;;8.52;7.03;;;;;;;12.56;70.08;100063.25;5051861;28;20519;-68
2022/04/25 10:00:38;;;;;;;7.82;7.03;;;;;;;12.60;69.01;100064.72;5032316;28;20048;-68
2022/04/25 10:03:45;;;;;;;7.63;6.93;;;;;;;12.70;68.59;100065.78;5033027;28;20064;-68
2022/04/25 10:06:51;;;;;;;10.18;6.90;;;;;;;12.68;69.16;100072.91;5049460;28;20341;-68
2022/04/25 10:09:56;;;;;;;9.07;8.23;;;;;;;12.80;68.79;100066.81;5050960;28;20052;-68
2022/04/25 10:13:01;;;;;;;8.30;7.32;;;;;;;12.66;68.78;100069.53;5049249;28;20403;-68
2022/04/25 10:16:05;;;;;;;8.13;7.13;;;;;;;12.60;70.40;100069.94;5032281;28;20420;-68
2022/04/25 10:19:08;;;;;;;9.48;7.68;;;;;;;12.41;69.83;100070.38;5035227;28;20044;-68
2022/04/25 10:22:12;;;;;;;18.58;14.23;;;;;;;12.60;69.92;100064.72;5035923;28;20041;-68
2022/04/25 10:25:16;;;;;;;9.00;8.05;;;;;;;12.74;69.71;100061.16;5035346;28;20114;-68
2022/04/25 10:28:25;;;;;;;8.80;7.97;;;;;;;12.76;70.40;100060.13;5044922;28;20554;-68
2022/04/25 10:31:38;;;;;;;8.73;7.20;;;;;;;12.78;69.28;100057.38;5038097;28;20212;-68
2022/04/25 10:34:59;;;;;;;9.18;7.88;;;;;;;12.84;66.85;100056.13;5035422;28;20040;-68
2022/04/25 10:38:50;;;;;;;11.48;7.40;;;;;;;13.06;66.04;100055.47;5035096;28;20111;-68
2022/04/25 10:45:15;;;;;;;7.90;6.72;;;;;;;13.16;66.43;100051.25;5035158;28;20087;-68
2022/04/25 10:48:19;;;;;;;7.63;6.82;;;;;;;13.01;65.07;100061.84;5035090;28;20044;-68
2022/04/25 10:51:37;;;;;;;7.72;6.93;;;;;;;12.80;65.93;100056.34;5035101;28;20119;-68
2022/04/25 10:54:48;;;;;;;8.30;7.03;;;;;;;13.06;66.77;100069.44;5035033;28;20098;-68
2022/04/25 10:58:04;;;;;;;9.23;7.00;;;;;;;13.09;67.00;100069.22;5042568;28;20068;-69
2022/04/25 11:01:07;;;;;;;7.25;6.40;;;;;;;13.00;64.97;100064.59;5054840;28;20052;-69
2022/04/25 11:04:13;;;;;;;;;;;;;;;13.16;64.93;100061.75;5055371;28;20051;-68
2022/04/25 11:07:24;;;;;;;10.40;5.90;;;;;;;13.13;65.56;100059.34;5054793;28;20012;-69
2022/04/25 11:10:47;;;;;;;6.45;5.68;;;;;;;13.00;65.33;100059.34;5054667;28;20184;-68
2022/04/25 11:13:50;;;;;;;6.93;6.22;;;;;;;12.97;66.18;100057.78;5054410;28;20044;-69
2022/04/25 11:17:06;;;;;;;6.63;5.93;;;;;;;12.87;65.68;100064.63;5054278;28;20553;-68
2022/04/25 11:20:10;;;;;;;6.50;5.80;;;;;;;12.76;66.00;100060.13;5033953;28;20099;-68
2022/04/25 11:23:28;;;;;;;7.88;6.30;;;;;;;12.65;66.73;100075.75;5034619;28;20500;-68
2022/04/25 11:26:36;;;;;;;10.18;6.95;;;;;;;12.60;68.44;100080.44;5034476;28;20068;-68
2022/04/25 11:29:45;;;;;;;8.18;7.38;;;;;;;12.54;68.48;100086.97;5033508;28;20059;-68
2022/04/25 11:32:50;;;;;;;8.30;6.88;;;;;;;12.40;69.53;100091.44;5044741;28;20051;-68
2022/04/25 11:35:59;;;;;;;8.60;7.30;;;;;;;12.31;71.79;100096.34;5028715;28;20144;-68
2022/04/25 11:42:30;;;;;;;9.32;8.10;;;;;;;11.61;78.91;100107.00;5030006;28;20064;-68
2022/04/25 11:45:33;;;;;;;11.43;9.15;;;;;;;11.52;79.90;100104.06;5030140;28;20170;-68
2022/04/25 11:48:36;;;;;;;13.50;9.32;;;;;;;11.74;80.20;100120.16;5029519;28;20048;-69
2022/04/25 11:51:40;;;;;;;16.67;10.95;;;;;;;11.41;82.67;100130.94;5048504;28;20052;-69
2022/04/25 11:54:44;;;;;;;21.35;12.15;;;;;;;11.48;82.23;100131.41;5048940;28;20515;-69
2022/04/25 11:57:47;;;;;;;18.75;11.55;;;;;;;10.77;83.89;100134.84;5048805;28;20251;-69
2022/04/25 12:00:50;;;;;;;15.25;10.55;;;;;;;10.61;84.65;100132.28;5044183;28;20037;-69
2022/04/25 12:04:25;;;;;;;14.45;10.35;;;;;;;10.57;83.78;100149.09;5037526;28;20094;-68
2022/04/25 12:07:29;;;;;;;14.40;11.60;;;;;;;10.67;82.74;100145.00;5038804;28;20049;-69
2022/04/25 12:17:19;;;;;;;16.23;11.05;;;;;;;10.16;84.13;100181.00;5046250;28;20039;-69
2022/04/25 12:20:30;;;;;;;16.35;9.57;;;;;;;9.82;80.43;100188.09;5048094;28;20416;-69
2022/04/25 12:23:36;;;;;;;10.45;8.57;;;;;;;9.66;81.09;100179.41;5048475;28;20055;-69
2022/04/25 12:26:41;;;;;;;20.88;9.02;;;;;;;9.98;81.02;100186.31;5047968;28;20043;-69
2022/04/25 12:30:06;;;;;;;25.20;17.25;;;;;;;9.76;82.36;100173.63;5041569;28;20501;-69
2022/04/25 12:33:11;;;;;;;15.98;11.63;;;;;;;9.94;81.79;100174.34;5029169;28;20145;-69
2022/04/25 12:36:22;;;;;;;15.82;9.38;;;;;;;9.64;82.37;100179.50;5029243;28;20531;-69
2022/04/25 12:39:27;;;;;;;16.17;9.55;;;;;;;9.80;81.79;100161.22;5029626;28;20044;-69
2022/04/25 12:42:50;;;;;;;19.00;9.02;;;;;;;10.16;81.83;100141.81;5027762;28;20067;-68
2022/04/25 12:45:53;;;;;;;16.38;8.80;;;;;;;11.09;78.71;100130.31;5032556;28;20052;-68
2022/04/25 12:49:03;;;;;;;10.10;7.43;;;;;;;12.23;76.40;100129.28;5036646;28;20067;-68
2022/04/25 12:52:08;;;;;;;7.45;5.32;;;;;;;12.92;73.42;100128.13;5020528;28;20052;-68
2022/04/25 12:55:12;;;;;;;7.53;4.60;;;;;;;13.43;70.65;100125.50;5015258;28;20044;-70
2022/04/25 12:58:16;;;;;;;5.78;4.03;;;;;;;13.98;69.07;100123.31;5047528;28;20052;-70
2022/04/25 13:01:35;;;;;;;7.78;5.38;;;;;;;14.32;68.79;100126.91;5049245;28;20117;-74
2022/04/25 13:05:05;;;;;;;6.47;4.80;;;;;;;14.83;67.40;100120.50;5048933;28;20095;-68
2022/04/25 13:08:08;;;;;;;6.88;3.67;;;;;;;14.79;64.25;100111.19;5036422;28;20055;-70
2022/04/25 13:11:11;;;;;;;4.38;3.35;;;;;;;15.12;64.21;100097.19;5029297;28;20432;-71
2022/04/25 13:14:15;;;;;;;3.45;2.85;;;;;;;15.77;61.86;100095.59;5028752;28;20048;-69
2022/04/25 13:17:19;;;;;;;4.25;2.70;;;;;;;15.78;62.17;100103.38;5028768;28;20396;-69
2022/04/25 13:20:28;;;;;;;4.07;2.78;;;;;;;16.08;64.78;100096.59;5028624;28;20135;-69
2022/04/25 13:23:31;;;;;;;7.93;3.08;;;;;;;16.42;62.17;100091.97;5028420;28;20040;-69
2022/04/25 13:26:34;;;;;;;3.25;2.75;;;;;;;16.90;60.25;100080.91;5049475;28;20090;-68
2022/04/25 13:29:38;;;;;;;4.32;3.60;;;;;;;17.36;58.87;100082.22;5051619;28;20112;-68
2022/04/25 13:32:45;;;;;;;5.68;3.78;;;;;;;17.72;58.21;100087.84;5052196;28;20132;-69
2022/04/25 13:35:48;;;;;;;4.60;3.03;;;;;;;18.69;55.08;100081.72;5052852;28;20127;-69
2022/04/25 13:38:51;;;;;;;5.55;3.50;;;;;;;19.32;52.22;100081.09;5052280;28;20413;-69
2022/04/25 13:41:54;;;;;;;4.10;3.33;;;;;;;20.60;47.91;100068.41;5052122;28;20113;-69
2022/04/25 13:44:58;;;;;;;5.07;4.00;;;;;;;20.60;48.04;100075.56;5052071;28;20103;-69
2022/04/25 13:48:01;;;;;;;8.07;4.05;;;;;;;23.20;42.14;100081.50;5044226;28;20114;-68
2022/04/25 13:51:05;;;;;;;7.65;4.55;;;;;;;24.92;38.06;100075.78;5052236;28;20106;-69
2022/04/25 13:54:08;;;;;;;6.20;4.30;;;;;;;19.89;47.25;100087.06;5041881;28;20087;-69
2022/04/25 13:57:13;;;;;;;4.35;3.95;;;;;;;22.83;40.50;100077.59;5046130;28;20153;-69
2022/04/25 14:00:18;;;;;;;4.50;3.72;;;;;;;24.57;36.88;100069.28;5051488;28;20166;-69
2022/04/25 14:03:22;;;;;;;5.95;3.80;;;;;;;25.67;34.74;100063.13;5051606;28;20063;-69
2022/04/25 14:06:27;;;;;;;6.40;3.78;;;;;;;28.17;31.87;100050.56;5039448;28;20503;-69
2022/04/25 14:09:32;;;;;;;4.95;3.20;;;;;;;28.69;30.42;100046.22;5051428;28;20554;-70
2022/04/25 14:12:37;;;;;;;6.50;3.75;;;;;;;25.19;33.78;100038.69;5039705;28;20064;-70
2022/04/25 14:15:52;;;;;;;4.35;3.28;;;;;;;24.45;35.78;100044.03;5051666;28;20500;-69
2022/04/25 14:18:57;;;;;;;3.80;3.13;;;;;;;22.13;40.02;100045.34;5051410;28;20052;-70
2022/04/25 14:22:01;;;;;;;7.40;3.40;;;;;;;19.00;47.40;100059.34;5050978;28;20040;-69
2022/04/25 14:25:07;;;;;;;5.88;4.68;;;;;;;17.66;50.86;100077.81;5050914;28;20514;-69
2022/04/25 14:28:12;;;;;;;3.78;3.28;;;;;;;16.08;55.54;100077.28;5031381;28;20396;-69
2022/04/25 14:31:15;;;;;;;5.90;3.00;;;;;;;16.00;55.09;100091.94;5051596;28;20155;-69
2022/04/25 14:34:19;;;;;;;6.72;3.63;;;;;;;15.32;59.93;100100.91;5051358;28;20048;-68
2022/04/25 14:37:22;;;;;;;3.60;2.95;;;;;;;14.95;57.21;100098.50;5037211;28;20163;-69
2022/04/25 14:40:26;;;;;;;4.97;3.60;;;;;;;14.75;59.56;100096.59;5051342;28;20083;-70
2022/04/25 14:43:34;;;;;;;5.03;3.20;;;;;;;14.54;62.89;100099.88;5042502;28;20098;-69
2022/04/25 14:46:54;;;;;;;7.18;3.22;;;;;;;14.11;65.52;100110.94;5054752;28;20062;-69
2022/04/25 14:56:54;;;;;;;6.90;4.05;;;;;;;12.99;72.15;100134.63;5039018;28;20614;-69
2022/04/25 14:59:57;;;;;;;8.20;3.92;;;;;;;12.93;72.02;100155.22;5040096;28;20044;-68
2022/04/25 15:03:01;;;;;;;7.13;4.18;;;;;;;12.15;70.47;100153.34;5050933;28;20150;-69
2022/04/25 15:06:04;;;;;;;6.63;4.25;;;;;;;12.37;71.42;100162.44;5051988;28;20043;-71
2022/04/25 15:09:08;;;;;;;6.90;4.85;;;;;;;12.40;72.22;100177.97;5033208;28;20104;-69
2022/04/25 15:12:14;;;;;;;5.82;4.57;;;;;;;12.04;73.85;100198.59;5040286;28;20120;-69
2022/04/25 15:15:20;;;;;;;9.70;4.32;;;;;;;12.34;72.75;100208.88;5036477;28;20161;-69
2022/04/25 15:18:24;;;;;;;7.70;4.70;;;;;;;11.70;74.09;100218.16;5044846;28;20045;-69
2022/04/25 15:21:29;;;;;;;9.48;4.03;;;;;;;11.30;75.21;100223.22;5034627;28;20159;-69
2022/04/25 15:24:33;;;;;;;6.55;5.20;;;;;;;11.20;76.11;100222.09;5034575;28;20056;-69